sensor_id;sensor_type;location;lat;lon;timestamp;pressure;altitude;pressure_sealevel;temperature;humidity
21817;BME280;13247;47.504;7.382;2024-03-07T00:01:00;97824.22;;;6.17;100.00
21817;BME280;13247;47.504;7.382;2024-03-07T00:03:47;97832.06;;;6.11;100.00
21817;BME280;13247;47.504;7.382;2024-03-07T00:06:32;97832.97;;;6.07;100.00
21817;BME280;13247;47.504;7.382;2024-03-07T00:09:17;97832.00;;;6.21;100.00
21817;BME280;13247;47.504;7.382;2024-03-07T00:12:05;97819.75;;;6.37;100.00
21817;BME280;13247;47.504;7.382;2024-03-07T00:14:51;97818.78;;;6.52;100.00
21817;BME280;13247;47.504;7.382;2024-03-07T00:17:36;97816.00;;;6.73;100.00
21817;BME280;13247;47.504;7.382;2024-03-07T00:20:21;97813.50;;;6.58;100.00
21817;BME280;13247;47.504;7.382;2024-03-07T00:23:06;97819.59;;;6.55;100.00
21817;BME280;13247;47.504;7.382;2024-03-07T00:25:51;97810.06;;;6.54;100.00
21817;BME280;13247;47.504;7.382;2024-03-07T00:28:35;97803.00;;;6.65;100.00
21817;BME280;13247;47.504;7.382;2024-03-07T00:31:23;97797.84;;;6.62;100.00
21817;BME280;13247;47.504;7.382;2024-03-07T00:34:08;97797.03;;;6.56;100.00
21817;BME280;13247;47.504;7.382;2024-03-07T00:36:54;97802.41;;;6.33;100.00
21817;BME280;13247;47.504;7.382;2024-03-07T00:39:40;97796.31;;;6.37;100.00
21817;BME280;13247;47.504;7.382;2024-03-07T00:42:26;97791.91;;;6.45;100.00
21817;BME280;13247;47.504;7.382;2024-03-07T00:45:11;97791.78;;;6.57;100.00
21817;BME280;13247;47.504;7.382;2024-03-07T00:47:56;97791.00;;;6.49;100.00
21817;BME280;13247;47.504;7.382;2024-03-07T00:50:40;97784.97;;;6.46;100.00
21817;BME280;13247;47.504;7.382;2024-03-07T00:53:26;97788.59;;;6.19;100.00
21817;BME280;13247;47.504;7.382;2024-03-07T00:56:11;97791.22;;;6.19;100.00
21817;BME280;13247;47.504;7.382;2024-03-07T00:58:56;97799.88;;;6.24;100.00
21817;BME280;13247;47.504;7.382;2024-03-07T01:01:41;97793.66;;;6.46;100.00
21817;BME280;13247;47.504;7.382;2024-03-07T01:04:26;97788.38;;;6.52;100.00
21817;BME280;13247;47.504;7.382;2024-03-07T01:07:15;97780.63;;;6.40;100.00
21817;BME280;13247;47.504;7.382;2024-03-07T01:09:59;97776.22;;;6.51;100.00
21817;BME280;13247;47.504;7.382;2024-03-07T01:12:45;97770.19;;;6.46;100.00
21817;BME280;13247;47.504;7.382;2024-03-07T01:15:30;97777.00;;;6.59;100.00
21817;BME280;13247;47.504;7.382;2024-03-07T01:18:15;97772.69;;;6.58;100.00
21817;BME280;13247;47.504;7.382;2024-03-07T01:21:02;97761.31;;;6.68;100.00
21817;BME280;13247;47.504;7.382;2024-03-07T01:23:47;97760.50;;;6.60;100.00
21817;BME280;13247;47.504;7.382;2024-03-07T01:26:31;97757.03;;;6.60;100.00
21817;BME280;13247;47.504;7.382;2024-03-07T01:29:18;97751.84;;;6.58;100.00
21817;BME280;13247;47.504;7.382;2024-03-07T01:32:03;97743.63;;;6.97;100.00
21817;BME280;13247;47.504;7.382;2024-03-07T01:34:47;97741.84;;;6.99;100.00
21817;BME280;13247;47.504;7.382;2024-03-07T01:37:32;97744.63;;;6.84;100.00
21817;BME280;13247;47.504;7.382;2024-03-07T01:40:16;97729.00;;;6.83;100.00
21817;BME280;13247;47.504;7.382;2024-03-07T01:43:04;97728.22;;;6.78;100.00
21817;BME280;13247;47.504;7.382;2024-03-07T01:45:54;97724.78;;;6.70;100.00
21817;BME280;13247;47.504;7.382;2024-03-07T01:48:41;97719.44;;;6.85;100.00
21817;BME280;13247;47.504;7.382;2024-03-07T01:51:26;97716.63;;;7.01;100.00
21817;BME280;13247;47.504;7.382;2024-03-07T01:54:11;97713.34;;;6.86;100.00
21817;BME280;13247;47.504;7.382;2024-03-07T01:56:56;97710.88;;;6.72;100.00
21817;BME280;13247;47.504;7.382;2024-03-07T01:59:42;97708.19;;;6.81;100.00
21817;BME280;13247;47.504;7.382;2024-03-07T02:02:27;97706.38;;;6.86;100.00
21817;BME280;13247;47.504;7.382;2024-03-07T02:05:12;97707.31;;;6.81;100.00
21817;BME280;13247;47.504;7.382;2024-03-07T02:07:58;97700.19;;;6.95;100.00
21817;BME280;13247;47.504;7.382;2024-03-07T02:10:43;97695.94;;;6.89;100.00
21817;BME280;13247;47.504;7.382;2024-03-07T02:13:28;97696.09;;;6.74;100.00
21817;BME280;13247;47.504;7.382;2024-03-07T02:16:12;97695.53;;;6.44;100.00
21817;BME280;13247;47.504;7.382;2024-03-07T02:18:58;97693.88;;;6.35;100.00
21817;BME280;13247;47.504;7.382;2024-03-07T02:21:44;97699.16;;;6.26;100.00
21817;BME280;13247;47.504;7.382;2024-03-07T02:24:28;97704.34;;;6.27;100.00
21817;BME280;13247;47.504;7.382;2024-03-07T02:27:13;97695.44;;;6.53;100.00
21817;BME280;13247;47.504;7.382;2024-03-07T02:30:02;97687.78;;;6.36;100.00
21817;BME280;13247;47.504;7.382;2024-03-07T02:32:50;97692.19;;;6.28;100.00
21817;BME280;13247;47.504;7.382;2024-03-07T02:35:39;97691.28;;;6.35;100.00
21817;BME280;13247;47.504;7.382;2024-03-07T02:38:23;97684.16;;;6.51;100.00
21817;BME280;13247;47.504;7.382;2024-03-07T02:41:08;97685.06;;;6.47;100.00
21817;BME280;13247;47.504;7.382;2024-03-07T02:43:53;97681.47;;;6.63;100.00
21817;BME280;13247;47.504;7.382;2024-03-07T02:46:38;97678.81;;;6.67;100.00
21817;BME280;13247;47.504;7.382;2024-03-07T02:49:23;97677.19;;;6.53;100.00
21817;BME280;13247;47.504;7.382;2024-03-07T02:52:08;97675.44;;;6.55;100.00
21817;BME280;13247;47.504;7.382;2024-03-07T02:54:53;97671.06;;;6.60;100.00
21817;BME280;13247;47.504;7.382;2024-03-07T02:57:38;97664.88;;;6.71;100.00
21817;BME280;13247;47.504;7.382;2024-03-07T03:00:23;97667.38;;;6.79;100.00
21817;BME280;13247;47.504;7.382;2024-03-07T03:03:11;97663.25;;;6.60;100.00
21817;BME280;13247;47.504;7.382;2024-03-07T03:05:55;97663.19;;;6.67;100.00
21817;BME280;13247;47.504;7.382;2024-03-07T03:08:40;97664.00;;;6.68;100.00
21817;BME280;13247;47.504;7.382;2024-03-07T03:11:24;97655.53;;;6.52;100.00
21817;BME280;13247;47.504;7.382;2024-03-07T03:14:13;97670.13;;;6.67;100.00
21817;BME280;13247;47.504;7.382;2024-03-07T03:16:58;97672.78;;;6.62;100.00
21817;BME280;13247;47.504;7.382;2024-03-07T03:19:43;97673.72;;;6.54;100.00
21817;BME280;13247;47.504;7.382;2024-03-07T03:22:27;97670.22;;;6.55;100.00
21817;BME280;13247;47.504;7.382;2024-03-07T03:25:12;97667.88;;;6.30;100.00
21817;BME280;13247;47.504;7.382;2024-03-07T03:27:58;97672.28;;;6.24;100.00
21817;BME280;13247;47.504;7.382;2024-03-07T03:30:43;97679.25;;;6.19;100.00
21817;BME280;13247;47.504;7.382;2024-03-07T03:33:27;97682.63;;;6.33;100.00
21817;BME280;13247;47.504;7.382;2024-03-07T03:36:13;97679.06;;;6.40;100.00
21817;BME280;13247;47.504;7.382;2024-03-07T03:38:58;97685.03;;;6.51;100.00
21817;BME280;13247;47.504;7.382;2024-03-07T03:41:43;97677.22;;;6.54;100.00
21817;BME280;13247;47.504;7.382;2024-03-07T03:44:27;97674.78;;;6.38;100.00
21817;BME280;13247;47.504;7.382;2024-03-07T03:47:12;97665.09;;;6.49;100.00
21817;BME280;13247;47.504;7.382;2024-03-07T03:49:57;97675.44;;;6.56;100.00
21817;BME280;13247;47.504;7.382;2024-03-07T03:52:41;97676.47;;;6.40;100.00
21817;BME280;13247;47.504;7.382;2024-03-07T03:55:26;97669.56;;;6.38;100.00
21817;BME280;13247;47.504;7.382;2024-03-07T03:58:11;97668.56;;;6.49;100.00
21817;BME280;13247;47.504;7.382;2024-03-07T04:00:56;97668.66;;;6.40;100.00
21817;BME280;13247;47.504;7.382;2024-03-07T04:03:42;97668.66;;;6.40;100.00
21817;BME280;13247;47.504;7.382;2024-03-07T04:06:27;97666.91;;;6.44;100.00
21817;BME280;13247;47.504;7.382;2024-03-07T04:09:11;97659.75;;;6.59;100.00
21817;BME280;13247;47.504;7.382;2024-03-07T04:11:56;97664.88;;;6.68;100.00
21817;BME280;13247;47.504;7.382;2024-03-07T04:14:43;97660.69;;;6.57;100.00
21817;BME280;13247;47.504;7.382;2024-03-07T04:17:28;97655.69;;;6.36;100.00
21817;BME280;13247;47.504;7.382;2024-03-07T04:20:13;97654.88;;;6.30;100.00
21817;BME280;13247;47.504;7.382;2024-03-07T04:22:58;97660.88;;;6.37;100.00
21817;BME280;13247;47.504;7.382;2024-03-07T04:25:42;97666.09;;;6.34;100.00
21817;BME280;13247;47.504;7.382;2024-03-07T04:28:27;97660.97;;;6.26;100.00
21817;BME280;13247;47.504;7.382;2024-03-07T04:31:12;97663.56;;;6.28;100.00
21817;BME280;13247;47.504;7.382;2024-03-07T04:33:58;97663.56;;;6.28;100.00
21817;BME280;13247;47.504;7.382;2024-03-07T04:36:43;97662.47;;;6.52;100.00
21817;BME280;13247;47.504;7.382;2024-03-07T04:39:28;97652.09;;;6.47;100.00
21817;BME280;13247;47.504;7.382;2024-03-07T04:42:16;97650.47;;;6.37;100.00
21817;BME280;13247;47.504;7.382;2024-03-07T04:45:01;97651.25;;;6.45;100.00
21817;BME280;13247;47.504;7.382;2024-03-07T04:47:46;97654.69;;;6.47;100.00
21817;BME280;13247;47.504;7.382;2024-03-07T04:50:31;97655.66;;;6.37;100.00
21817;BME280;13247;47.504;7.382;2024-03-07T04:53:16;97653.81;;;6.48;100.00
21817;BME280;13247;47.504;7.382;2024-03-07T04:56:00;97655.50;;;6.54;100.00
21817;BME280;13247;47.504;7.382;2024-03-07T04:58:45;97654.47;;;6.65;100.00
21817;BME280;13247;47.504;7.382;2024-03-07T05:01:29;97650.06;;;6.72;100.00
21817;BME280;13247;47.504;7.382;2024-03-07T05:04:16;97644.81;;;6.78;100.00
21817;BME280;13247;47.504;7.382;2024-03-07T05:07:01;97644.56;;;6.97;100.00
21817;BME280;13247;47.504;7.382;2024-03-07T05:09:47;97635.94;;;6.94;100.00
21817;BME280;13247;47.504;7.382;2024-03-07T05:12:33;97639.38;;;6.96;100.00
21817;BME280;13247;47.504;7.382;2024-03-07T05:15:18;97630.03;;;6.78;100.00
21817;BME280;13247;47.504;7.382;2024-03-07T05:18:03;97627.97;;;7.04;100.00
21817;BME280;13247;47.504;7.382;2024-03-07T05:20:49;97626.03;;;7.19;100.00
21817;BME280;13247;47.504;7.382;2024-03-07T05:23:33;97631.22;;;7.22;100.00
21817;BME280;13247;47.504;7.382;2024-03-07T05:26:18;97623.13;;;7.41;100.00
21817;BME280;13247;47.504;7.382;2024-03-07T05:29:07;97618.91;;;7.33;100.00
21817;BME280;13247;47.504;7.382;2024-03-07T05:31:52;97605.16;;;7.20;100.00
21817;BME280;13247;47.504;7.382;2024-03-07T05:34:37;97602.31;;;7.35;100.00
21817;BME280;13247;47.504;7.382;2024-03-07T05:37:25;97600.75;;;7.24;100.00
21817;BME280;13247;47.504;7.382;2024-03-07T05:40:10;97606.16;;;7.10;100.00
21817;BME280;13247;47.504;7.382;2024-03-07T05:42:55;97621.25;;;6.85;100.00
21817;BME280;13247;47.504;7.382;2024-03-07T05:45:41;97619.97;;;6.47;100.00
21817;BME280;13247;47.504;7.382;2024-03-07T05:48:26;97626.84;;;6.54;100.00
21817;BME280;13247;47.504;7.382;2024-03-07T05:51:11;97626.88;;;6.52;100.00
21817;BME280;13247;47.504;7.382;2024-03-07T05:53:55;97621.59;;;6.58;100.00
21817;BME280;13247;47.504;7.382;2024-03-07T05:56:41;97627.72;;;6.54;100.00
21817;BME280;13247;47.504;7.382;2024-03-07T05:59:26;97627.59;;;6.63;100.00
21817;BME280;13247;47.504;7.382;2024-03-07T06:02:13;97633.53;;;6.74;100.00
21817;BME280;13247;47.504;7.382;2024-03-07T06:04:59;97626.38;;;6.94;100.00
21817;BME280;13247;47.504;7.382;2024-03-07T06:07:45;97632.63;;;6.80;100.00
21817;BME280;13247;47.504;7.382;2024-03-07T06:10:33;97634.06;;;6.29;100.00
21817;BME280;13247;47.504;7.382;2024-03-07T06:13:18;97639.19;;;6.35;100.00
21817;BME280;13247;47.504;7.382;2024-03-07T06:16:03;97641.72;;;6.43;100.00
21817;BME280;13247;47.504;7.382;2024-03-07T06:18:52;97635.41;;;6.65;100.00
21817;BME280;13247;47.504;7.382;2024-03-07T06:21:37;97630.84;;;6.80;100.00
21817;BME280;13247;47.504;7.382;2024-03-07T06:24:23;97632.75;;;6.68;100.00
21817;BME280;13247;47.504;7.382;2024-03-07T06:27:08;97635.41;;;6.63;100.00
21817;BME280;13247;47.504;7.382;2024-03-07T06:30:01;97638.00;;;6.65;100.00
21817;BME280;13247;47.504;7.382;2024-03-07T06:32:46;97627.38;;;6.83;100.00
21817;BME280;13247;47.504;7.382;2024-03-07T06:35:30;97624.69;;;6.89;100.00
21817;BME280;13247;47.504;7.382;2024-03-07T06:38:15;97625.81;;;6.68;100.00
21817;BME280;13247;47.504;7.382;2024-03-07T06:40:59;97625.84;;;6.64;100.00
21817;BME280;13247;47.504;7.382;2024-03-07T06:43:44;97620.63;;;6.64;100.00
21817;BME280;13247;47.504;7.382;2024-03-07T06:46:29;97630.16;;;6.69;100.00
21817;BME280;13247;47.504;7.382;2024-03-07T06:49:16;97613.75;;;6.58;100.00
21817;BME280;13247;47.504;7.382;2024-03-07T06:52:00;97614.44;;;6.75;100.00
21817;BME280;13247;47.504;7.382;2024-03-07T06:54:45;97605.44;;;7.00;100.00
21817;BME280;13247;47.504;7.382;2024-03-07T06:57:30;97600.38;;;6.88;100.00
21817;BME280;13247;47.504;7.382;2024-03-07T07:00:15;97601.09;;;7.01;100.00
21817;BME280;13247;47.504;7.382;2024-03-07T07:03:06;97586.53;;;6.83;100.00
21817;BME280;13247;47.504;7.382;2024-03-07T07:05:51;97593.56;;;6.77;100.00
21817;BME280;13247;47.504;7.382;2024-03-07T07:08:35;97601.19;;;6.92;100.00
21817;BME280;13247;47.504;7.382;2024-03-07T07:11:20;97586.31;;;7.00;100.00
21817;BME280;13247;47.504;7.382;2024-03-07T07:14:05;97593.31;;;6.96;100.00
21817;BME280;13247;47.504;7.382;2024-03-07T07:16:49;97586.22;;;7.06;100.00
21817;BME280;13247;47.504;7.382;2024-03-07T07:19:34;97579.28;;;7.06;100.00
21817;BME280;13247;47.504;7.382;2024-03-07T07:22:18;97583.84;;;6.89;100.00
21817;BME280;13247;47.504;7.382;2024-03-07T07:25:03;97577.78;;;6.87;100.00
21817;BME280;13247;47.504;7.382;2024-03-07T07:27:51;97574.16;;;6.99;100.00
21817;BME280;13247;47.504;7.382;2024-03-07T07:30:39;97571.31;;;7.14;100.00
21817;BME280;13247;47.504;7.382;2024-03-07T07:33:23;97573.31;;;6.98;100.00
21817;BME280;13247;47.504;7.382;2024-03-07T07:36:08;97576.97;;;6.82;100.00
21817;BME280;13247;47.504;7.382;2024-03-07T07:38:54;97579.31;;;7.05;100.00
21817;BME280;13247;47.504;7.382;2024-03-07T07:41:39;97574.72;;;7.22;100.00
21817;BME280;13247;47.504;7.382;2024-03-07T07:44:23;97570.53;;;7.10;100.00
21817;BME280;13247;47.504;7.382;2024-03-07T07:47:08;97575.16;;;6.90;100.00
21817;BME280;13247;47.504;7.382;2024-03-07T07:49:52;97580.22;;;7.01;100.00
21817;BME280;13247;47.504;7.382;2024-03-07T07:52:37;97574.16;;;7.00;100.00
21817;BME280;13247;47.504;7.382;2024-03-07T07:55:25;97573.28;;;7.00;100.00
21817;BME280;13247;47.504;7.382;2024-03-07T07:58:10;97582.63;;;7.14;100.00
21817;BME280;13247;47.504;7.382;2024-03-07T08:00:55;97575.47;;;7.29;100.00
21817;BME280;13247;47.504;7.382;2024-03-07T08:03:40;97562.13;;;7.48;100.00
21817;BME280;13247;47.504;7.382;2024-03-07T08:06:25;97561.50;;;7.31;100.00
21817;BME280;13247;47.504;7.382;2024-03-07T08:09:10;97559.81;;;7.30;100.00
21817;BME280;13247;47.504;7.382;2024-03-07T08:11:54;97553.59;;;7.39;100.00
21817;BME280;13247;47.504;7.382;2024-03-07T08:14:39;97557.81;;;7.47;100.00
21817;BME280;13247;47.504;7.382;2024-03-07T08:17:23;97558.22;;;7.19;100.00
21817;BME280;13247;47.504;7.382;2024-03-07T08:20:09;97565.97;;;7.26;100.00
21817;BME280;13247;47.504;7.382;2024-03-07T08:22:57;97562.09;;;7.50;100.00
21817;BME280;13247;47.504;7.382;2024-03-07T08:25:43;97559.34;;;7.59;100.00
21817;BME280;13247;47.504;7.382;2024-03-07T08:28:29;97550.41;;;7.73;100.00
21817;BME280;13247;47.504;7.382;2024-03-07T08:31:13;97551.59;;;7.56;100.00
21817;BME280;13247;47.504;7.382;2024-03-07T08:33:58;97553.25;;;7.60;100.00
21817;BME280;13247;47.504;7.382;2024-03-07T08:36:44;97547.78;;;7.73;100.00
21817;BME280;13247;47.504;7.382;2024-03-07T08:39:29;97547.47;;;7.40;100.00
21817;BME280;13247;47.504;7.382;2024-03-07T08:42:14;97548.16;;;7.51;100.00
21817;BME280;13247;47.504;7.382;2024-03-07T08:45:02;97544.38;;;7.70;100.00
21817;BME280;13247;47.504;7.382;2024-03-07T08:47:52;97542.47;;;7.79;100.00
21817;BME280;13247;47.504;7.382;2024-03-07T08:50:39;97546.94;;;7.73;100.00
21817;BME280;13247;47.504;7.382;2024-03-07T08:53:23;97541.19;;;8.03;100.00
21817;BME280;13247;47.504;7.382;2024-03-07T08:56:08;97536.09;;;7.94;100.00
21817;BME280;13247;47.504;7.382;2024-03-07T08:58:52;97535.84;;;8.09;100.00
21817;BME280;13247;47.504;7.382;2024-03-07T09:01:37;97531.94;;;7.85;100.00
21817;BME280;13247;47.504;7.382;2024-03-07T09:04:22;97535.91;;;8.06;100.00
21817;BME280;13247;47.504;7.382;2024-03-07T09:07:07;97523.91;;;7.96;100.00
21817;BME280;13247;47.504;7.382;2024-03-07T09:09:52;97528.88;;;8.10;100.00
21817;BME280;13247;47.504;7.382;2024-03-07T09:12:37;97524.47;;;8.12;100.00
21817;BME280;13247;47.504;7.382;2024-03-07T09:15:22;97517.63;;;8.05;100.00
21817;BME280;13247;47.504;7.382;2024-03-07T09:18:07;97519.09;;;8.21;100.00
21817;BME280;13247;47.504;7.382;2024-03-07T09:20:52;97511.41;;;8.12;100.00
21817;BME280;13247;47.504;7.382;2024-03-07T09:23:37;97514.06;;;8.10;100.00
21817;BME280;13247;47.504;7.382;2024-03-07T09:26:21;97514.44;;;8.36;100.00
21817;BME280;13247;47.504;7.382;2024-03-07T09:29:06;97499.22;;;8.12;100.00
21817;BME280;13247;47.504;7.382;2024-03-07T09:31:51;97502.50;;;8.23;100.00
21817;BME280;13247;47.504;7.382;2024-03-07T09:34:39;97500.88;;;8.16;100.00
21817;BME280;13247;47.504;7.382;2024-03-07T09:37:23;97500.72;;;8.27;100.00
21817;BME280;13247;47.504;7.382;2024-03-07T09:40:09;97502.97;;;7.99;100.00
21817;BME280;13247;47.504;7.382;2024-03-07T09:42:56;97501.13;;;8.04;100.00
21817;BME280;13247;47.504;7.382;2024-03-07T09:45:42;97510.13;;;7.89;100.00
21817;BME280;13247;47.504;7.382;2024-03-07T09:48:27;97497.09;;;7.86;100.00
21817;BME280;13247;47.504;7.382;2024-03-07T09:51:14;97501.47;;;8.33;100.00
21817;BME280;13247;47.504;7.382;2024-03-07T09:54:01;97501.91;;;8.08;100.00
21817;BME280;13247;47.504;7.382;2024-03-07T09:56:46;97502.66;;;8.14;100.00
21817;BME280;13247;47.504;7.382;2024-03-07T09:59:36;97511.22;;;8.22;100.00
21817;BME280;13247;47.504;7.382;2024-03-07T10:02:24;97497.56;;;8.08;100.00
21817;BME280;13247;47.504;7.382;2024-03-07T10:05:11;97500.94;;;8.13;100.00
21817;BME280;13247;47.504;7.382;2024-03-07T10:07:59;97500.00;;;8.17;100.00
21817;BME280;13247;47.504;7.382;2024-03-07T10:10:45;97491.31;;;8.17;100.00
21817;BME280;13247;47.504;7.382;2024-03-07T10:13:32;97489.44;;;8.22;100.00
21817;BME280;13247;47.504;7.382;2024-03-07T10:16:17;97482.56;;;8.18;100.00
21817;BME280;13247;47.504;7.382;2024-03-07T10:19:06;97486.09;;;8.15;100.00
21817;BME280;13247;47.504;7.382;2024-03-07T10:21:52;97480.03;;;8.13;100.00
21817;BME280;13247;47.504;7.382;2024-03-07T10:24:50;97481.72;;;8.17;100.00
21817;BME280;13247;47.504;7.382;2024-03-07T10:27:36;97468.19;;;8.41;100.00
21817;BME280;13247;47.504;7.382;2024-03-07T10:30:21;97474.69;;;8.21;100.00
21817;BME280;13247;47.504;7.382;2024-03-07T10:33:07;97474.84;;;8.12;100.00
21817;BME280;13247;47.504;7.382;2024-03-07T10:35:52;97468.97;;;8.46;100.00
21817;BME280;13247;47.504;7.382;2024-03-07T10:38:37;97473.16;;;8.53;100.00
21817;BME280;13247;47.504;7.382;2024-03-07T10:41:26;97469.38;;;8.27;100.00
21817;BME280;13247;47.504;7.382;2024-03-07T10:44:24;97465.03;;;8.26;100.00
21817;BME280;13247;47.504;7.382;2024-03-07T10:47:15;97466.56;;;8.36;100.00
21817;BME280;13247;47.504;7.382;2024-03-07T10:50:43;97476.59;;;8.11;100.00
21817;BME280;13247;47.504;7.382;2024-03-07T10:53:45;97468.31;;;8.35;100.00
21817;BME280;13247;47.504;7.382;2024-03-07T10:59:47;97465.44;;;8.87;100.00
21817;BME280;13247;47.504;7.382;2024-03-07T11:02:45;97466.88;;;9.00;100.00
21817;BME280;13247;47.504;7.382;2024-03-07T11:05:31;97460.44;;;8.78;100.00
21817;BME280;13247;47.504;7.382;2024-03-07T11:08:16;97454.34;;;8.78;100.00
21817;BME280;13247;47.504;7.382;2024-03-07T11:11:01;97454.28;;;8.81;100.00
21817;BME280;13247;47.504;7.382;2024-03-07T11:13:47;97449.34;;;9.05;100.00
21817;BME280;13247;47.504;7.382;2024-03-07T11:16:34;97448.91;;;8.87;100.00
21817;BME280;13247;47.504;7.382;2024-03-07T11:19:20;97449.66;;;8.92;100.00
21817;BME280;13247;47.504;7.382;2024-03-07T11:22:10;97450.59;;;8.88;100.00
21817;BME280;13247;47.504;7.382;2024-03-07T11:25:02;97438.31;;;8.93;100.00
21817;BME280;13247;47.504;7.382;2024-03-07T11:27:53;97444.84;;;9.10;100.00
21817;BME280;13247;47.504;7.382;2024-03-07T11:30:40;97440.47;;;9.11;100.00
21817;BME280;13247;47.504;7.382;2024-03-07T11:33:25;97442.88;;;9.20;100.00
21817;BME280;13247;47.504;7.382;2024-03-07T11:36:11;97433.13;;;8.91;100.00
21817;BME280;13247;47.504;7.382;2024-03-07T11:38:59;97427.63;;;9.02;100.00
21817;BME280;13247;47.504;7.382;2024-03-07T11:41:43;97417.88;;;8.72;100.00
21817;BME280;13247;47.504;7.382;2024-03-07T11:44:28;97414.28;;;8.76;100.00
21817;BME280;13247;47.504;7.382;2024-03-07T11:47:15;97418.25;;;8.93;100.00
21817;BME280;13247;47.504;7.382;2024-03-07T11:50:02;97414.22;;;8.79;100.00
21817;BME280;13247;47.504;7.382;2024-03-07T11:52:53;97412.81;;;8.64;100.00
21817;BME280;13247;47.504;7.382;2024-03-07T11:55:40;97418.13;;;8.98;100.00
21817;BME280;13247;47.504;7.382;2024-03-07T11:58:31;97414.44;;;8.69;100.00
21817;BME280;13247;47.504;7.382;2024-03-07T12:01:16;97408.97;;;8.79;100.00
21817;BME280;13247;47.504;7.382;2024-03-07T12:04:01;97419.59;;;9.09;100.00
21817;BME280;13247;47.504;7.382;2024-03-07T12:06:53;97405.28;;;8.89;100.00
21817;BME280;13247;47.504;7.382;2024-03-07T12:09:38;97399.69;;;9.02;100.00
21817;BME280;13247;47.504;7.382;2024-03-07T12:12:23;97400.25;;;9.16;100.00
21817;BME280;13247;47.504;7.382;2024-03-07T12:15:15;97387.53;;;9.01;100.00
21817;BME280;13247;47.504;7.382;2024-03-07T12:18:05;97395.03;;;9.15;100.00
21817;BME280;13247;47.504;7.382;2024-03-07T12:20:54;97390.16;;;9.01;100.00
21817;BME280;13247;47.504;7.382;2024-03-07T12:23:39;97389.59;;;8.89;100.00
21817;BME280;13247;47.504;7.382;2024-03-07T12:26:24;97384.50;;;8.83;100.00
21817;BME280;13247;47.504;7.382;2024-03-07T12:29:11;97388.34;;;8.66;100.00
21817;BME280;13247;47.504;7.382;2024-03-07T12:31:56;97380.63;;;8.99;100.00
21817;BME280;13247;47.504;7.382;2024-03-07T12:34:42;97383.28;;;9.31;100.00
21817;BME280;13247;47.504;7.382;2024-03-07T12:37:35;97370.69;;;9.45;100.00
21817;BME280;13247;47.504;7.382;2024-03-07T12:40:20;97375.69;;;9.54;100.00
21817;BME280;13247;47.504;7.382;2024-03-07T12:43:18;97371.94;;;9.64;100.00
21817;BME280;13247;47.504;7.382;2024-03-07T12:46:05;97361.97;;;9.77;100.00
21817;BME280;13247;47.504;7.382;2024-03-07T12:48:50;97365.63;;;10.02;100.00
21817;BME280;13247;47.504;7.382;2024-03-07T12:51:35;97359.63;;;9.98;100.00
21817;BME280;13247;47.504;7.382;2024-03-07T12:54:21;97360.50;;;9.97;100.00
21817;BME280;13247;47.504;7.382;2024-03-07T12:57:10;97356.25;;;9.93;100.00
21817;BME280;13247;47.504;7.382;2024-03-07T12:59:55;97347.44;;;10.26;100.00
21817;BME280;13247;47.504;7.382;2024-03-07T13:02:40;97342.06;;;10.31;100.00
21817;BME280;13247;47.504;7.382;2024-03-07T13:05:28;97341.56;;;10.20;100.00
21817;BME280;13247;47.504;7.382;2024-03-07T13:08:12;97337.28;;;10.16;100.00
21817;BME280;13247;47.504;7.382;2024-03-07T13:10:57;97331.84;;;10.51;100.00
21817;BME280;13247;47.504;7.382;2024-03-07T13:13:43;97327.44;;;10.52;100.00
21817;BME280;13247;47.504;7.382;2024-03-07T13:16:28;97328.16;;;10.57;100.00
21817;BME280;13247;47.504;7.382;2024-03-07T13:19:12;97329.84;;;10.59;100.00
21817;BME280;13247;47.504;7.382;2024-03-07T13:21:59;97321.16;;;10.30;100.00
21817;BME280;13247;47.504;7.382;2024-03-07T13:24:44;97324.09;;;10.19;100.00
21817;BME280;13247;47.504;7.382;2024-03-07T13:27:30;97320.56;;;10.48;100.00
21817;BME280;13247;47.504;7.382;2024-03-07T13:30:14;97323.59;;;10.36;100.00
21817;BME280;13247;47.504;7.382;2024-03-07T13:33:07;97328.50;;;10.74;100.00
21817;BME280;13247;47.504;7.382;2024-03-07T13:35:54;97326.34;;;10.59;100.00
21817;BME280;13247;47.504;7.382;2024-03-07T13:38:39;97323.31;;;10.45;100.00
21817;BME280;13247;47.504;7.382;2024-03-07T13:41:25;97317.13;;;10.47;100.00
21817;BME280;13247;47.504;7.382;2024-03-07T13:44:13;97319.28;;;10.35;100.00
21817;BME280;13247;47.504;7.382;2024-03-07T13:46:58;97317.53;;;10.61;100.00
21817;BME280;13247;47.504;7.382;2024-03-07T13:49:44;97310.06;;;10.49;100.00
21817;BME280;13247;47.504;7.382;2024-03-07T13:52:29;97300.91;;;10.35;100.00
21817;BME280;13247;47.504;7.382;2024-03-07T13:55:16;97314.31;;;10.53;100.00
21817;BME280;13247;47.504;7.382;2024-03-07T13:58:07;97305.19;;;10.08;100.00
21817;BME280;13247;47.504;7.382;2024-03-07T14:07:08;97292.25;;;10.33;100.00
21817;BME280;13247;47.504;7.382;2024-03-07T14:10:44;97293.94;;;10.34;100.00
21817;BME280;13247;47.504;7.382;2024-03-07T14:27:04;97281.25;;;10.48;100.00
21817;BME280;13247;47.504;7.382;2024-03-07T14:30:36;97277.22;;;10.38;100.00
21817;BME280;13247;47.504;7.382;2024-03-07T14:33:50;97280.47;;;10.72;100.00
21817;BME280;13247;47.504;7.382;2024-03-07T14:36:45;97264.53;;;10.52;100.00
21817;BME280;13247;47.504;7.382;2024-03-07T14:39:32;97269.56;;;10.32;100.00
21817;BME280;13247;47.504;7.382;2024-03-07T14:42:20;97264.16;;;10.64;100.00
21817;BME280;13247;47.504;7.382;2024-03-07T14:45:05;97265.97;;;10.62;100.00
21817;BME280;13247;47.504;7.382;2024-03-07T14:47:52;97263.66;;;10.79;100.00
21817;BME280;13247;47.504;7.382;2024-03-07T14:50:39;97258.56;;;10.99;100.00
21817;BME280;13247;47.504;7.382;2024-03-07T14:53:24;97259.38;;;11.01;100.00
21817;BME280;13247;47.504;7.382;2024-03-07T14:56:10;97255.88;;;11.00;100.00
21817;BME280;13247;47.504;7.382;2024-03-07T14:58:56;97261.16;;;11.25;100.00
21817;BME280;13247;47.504;7.382;2024-03-07T15:01:41;97255.47;;;11.37;100.00
21817;BME280;13247;47.504;7.382;2024-03-07T15:04:28;97261.25;;;11.22;100.00